AIRPORT METAR

METAR FOR LIMJ
ADDS - METARS form results

(1109 UTC 18 February 2020)
Data provider http://aviationweather.gov/metar/data/
 
METAR text: LIMJ 181050Z 12005KT 080V150 9999 FEW015 SCT025 14/12 Q1024
Conditions at: LIMJ (GENOVA/SESTRI , IT) observed 1050 UTC 18 February 2020
Temperature: 14.0°C (57°F)
Dewpoint: 12.0°C (54°F) [RH = 88%]
Pressure (altimeter): 30.24 inches Hg (1024.0 mb)
Winds: from the ESE (120 degrees) at 6 MPH (5 knots; 2.6 m/s)
Visibility: 6 or more miles (10+ km)
Ceiling: at least 12,000 feet AGL
Clouds: few clouds at 1500 feet AGL
scattered clouds at 2500 feet AGL
Weather: no significant weather observed at this time

METAR text: LIMJ 181020Z 13007KT 9999 FEW015 14/10 Q1024
Conditions at: LIMJ (GENOVA/SESTRI , IT) observed 1020 UTC 18 February 2020
Temperature: 14.0°C (57°F)
Dewpoint: 10.0°C (50°F) [RH = 77%]
Pressure (altimeter): 30.24 inches Hg (1024.0 mb)
Winds: from the SE (130 degrees) at 8 MPH (7 knots; 3.6 m/s)
Visibility: 6 or more miles (10+ km)
Ceiling: at least 12,000 feet AGL
Clouds: few clouds at 1500 feet AGL
Weather: no significant weather observed at this time

Forecast for: LIMJ (GENOVA/SESTRI , IT)
Text: TAF LIMJ 180500Z 1806/1906 16010KT 4000 BR SCT015 BKN030
Forecast period: 0600 UTC 18 February 2020 to 0600 UTC 19 February 2020
Forecast type: FROM: standard forecast or significant change
Winds: from the SSE (160 degrees) at 12 MPH (10 knots; 5.1 m/s)
Visibility: 2.49 miles (4.01 km)
Ceiling: 3000 feet AGL
Clouds: scattered clouds at 1500 feet AGL
broken clouds at 3000 feet AGL
Weather: BR  (mist)
Text: BECMG 1806/1808 VRB05KT 8000 SCT060
Forecast period: 0600 UTC 18 February 2020 to 0600 UTC 19 February 2020
Forecast type: BECOMING: Conditions expected to become as follows by 0800 UTC 18 February 2020
Winds: variable direction winds at 6 MPH (5 knots; 2.6 m/s)
Visibility: 5 miles (8 km)
Ceiling: at least 12,000 feet AGL
Clouds: scattered clouds at 6000 feet AGL
Weather: BR  (mist)

AIRPORT MAP

 RUNWAY INFORMATION
Runway 10 Runway length 9564 ft Runway width 148 ft
Runway elevation 9 ft Runway displaced threshold 0 ft Runway heading 105
Runway 28 Runway length 9564 ft Runway width 148 ft
Runway elevation 12 ft Runway displaced threshold 528 ft Runway heading 285

 AIRPORT FREQUENCIES
Type APP Name APP Frequency 119.6 MHZ
Type ATIS Name ATIS Frequency 122.825 MHZ
Type TWR Name TWR Frequency 118.6 MHZ

 AIRPORT NEAR NAVIGATION AIDS
Type VOR-DME Name Genova Frequency 112800 KHZ
Type NDB Name Genova Frequency 318 KHZ
Type VOR-DME Name Genova Sestri Frequency 108600 KHZ



© 2017 - Royal Sky Service, All Right Reserved. | Design & Developed by Davide Torresan